sensor_id;sensor_type;location;lat;lon;timestamp;temperature;humidity
73777;DHT22;62088;50.240;2.696;2023-10-09T00:02:08;15.70;77.10
73777;DHT22;62088;50.240;2.696;2023-10-09T00:04:38;15.70;77.10
73777;DHT22;62088;50.240;2.696;2023-10-09T00:07:09;15.80;77.10
73777;DHT22;62088;50.240;2.696;2023-10-09T00:09:38;15.80;77.10
73777;DHT22;62088;50.240;2.696;2023-10-09T00:12:18;15.70;77.10
73777;DHT22;62088;50.240;2.696;2023-10-09T00:14:50;15.80;77.10
73777;DHT22;62088;50.240;2.696;2023-10-09T00:17:17;15.80;77.00
73777;DHT22;62088;50.240;2.696;2023-10-09T00:19:49;15.80;77.00
73777;DHT22;62088;50.240;2.696;2023-10-09T00:22:21;15.80;77.00
73777;DHT22;62088;50.240;2.696;2023-10-09T00:24:52;15.80;77.00
73777;DHT22;62088;50.240;2.696;2023-10-09T00:27:41;15.80;77.00
73777;DHT22;62088;50.240;2.696;2023-10-09T00:30:18;15.80;77.00
73777;DHT22;62088;50.240;2.696;2023-10-09T00:32:48;15.80;77.00
73777;DHT22;62088;50.240;2.696;2023-10-09T00:35:27;15.80;77.00
73777;DHT22;62088;50.240;2.696;2023-10-09T00:38:05;15.80;77.00
73777;DHT22;62088;50.240;2.696;2023-10-09T00:40:48;15.70;76.80
73777;DHT22;62088;50.240;2.696;2023-10-09T00:43:23;15.80;76.80
73777;DHT22;62088;50.240;2.696;2023-10-09T00:45:59;15.80;76.70
73777;DHT22;62088;50.240;2.696;2023-10-09T00:48:37;15.80;76.70
73777;DHT22;62088;50.240;2.696;2023-10-09T00:51:08;15.70;76.70
73777;DHT22;62088;50.240;2.696;2023-10-09T00:53:48;15.80;76.60
73777;DHT22;62088;50.240;2.696;2023-10-09T00:56:22;15.80;76.60
73777;DHT22;62088;50.240;2.696;2023-10-09T00:58:53;15.80;76.40
73777;DHT22;62088;50.240;2.696;2023-10-09T01:01:42;15.80;76.30
73777;DHT22;62088;50.240;2.696;2023-10-09T01:04:17;15.80;76.20
73777;DHT22;62088;50.240;2.696;2023-10-09T01:06:46;15.80;76.20
73777;DHT22;62088;50.240;2.696;2023-10-09T01:09:32;15.70;76.10
73777;DHT22;62088;50.240;2.696;2023-10-09T01:12:09;15.70;76.10
73777;DHT22;62088;50.240;2.696;2023-10-09T01:14:44;15.70;76.10
73777;DHT22;62088;50.240;2.696;2023-10-09T01:17:11;15.70;76.10
73777;DHT22;62088;50.240;2.696;2023-10-09T01:19:45;15.70;76.00
73777;DHT22;62088;50.240;2.696;2023-10-09T01:22:13;15.70;76.00
73777;DHT22;62088;50.240;2.696;2023-10-09T01:24:41;15.70;75.90
73777;DHT22;62088;50.240;2.696;2023-10-09T01:27:10;15.70;75.80
73777;DHT22;62088;50.240;2.696;2023-10-09T01:29:43;15.60;75.70
73777;DHT22;62088;50.240;2.696;2023-10-09T01:32:13;15.60;75.50
73777;DHT22;62088;50.240;2.696;2023-10-09T01:34:44;15.60;75.40
73777;DHT22;62088;50.240;2.696;2023-10-09T01:37:21;15.60;75.40
73777;DHT22;62088;50.240;2.696;2023-10-09T01:39:58;15.50;75.40
73777;DHT22;62088;50.240;2.696;2023-10-09T01:42:26;15.50;75.30
73777;DHT22;62088;50.240;2.696;2023-10-09T01:45:12;15.40;75.20
73777;DHT22;62088;50.240;2.696;2023-10-09T01:47:44;15.40;75.20
73777;DHT22;62088;50.240;2.696;2023-10-09T01:50:19;15.40;75.20
73777;DHT22;62088;50.240;2.696;2023-10-09T01:52:49;15.40;75.20
73777;DHT22;62088;50.240;2.696;2023-10-09T01:55:18;15.40;75.10
73777;DHT22;62088;50.240;2.696;2023-10-09T01:58:09;15.40;74.90
73777;DHT22;62088;50.240;2.696;2023-10-09T02:00:44;15.40;74.90
73777;DHT22;62088;50.240;2.696;2023-10-09T02:03:17;15.30;74.80
73777;DHT22;62088;50.240;2.696;2023-10-09T02:05:45;15.30;74.70
73777;DHT22;62088;50.240;2.696;2023-10-09T02:08:12;15.20;74.60
73777;DHT22;62088;50.240;2.696;2023-10-09T02:10:40;15.20;74.50
73777;DHT22;62088;50.240;2.696;2023-10-09T02:13:07;15.10;74.60
73777;DHT22;62088;50.240;2.696;2023-10-09T02:15:40;15.10;74.70
73777;DHT22;62088;50.240;2.696;2023-10-09T02:18:20;15.10;74.90
73777;DHT22;62088;50.240;2.696;2023-10-09T02:23:39;15.00;74.90
73777;DHT22;62088;50.240;2.696;2023-10-09T02:26:17;15.00;74.70
73777;DHT22;62088;50.240;2.696;2023-10-09T02:29:09;15.00;74.60
73777;DHT22;62088;50.240;2.696;2023-10-09T02:31:47;14.90;74.50
73777;DHT22;62088;50.240;2.696;2023-10-09T02:34:18;14.90;74.70
73777;DHT22;62088;50.240;2.696;2023-10-09T02:36:49;14.80;74.90
73777;DHT22;62088;50.240;2.696;2023-10-09T02:39:16;14.80;74.90
73777;DHT22;62088;50.240;2.696;2023-10-09T02:42:12;14.70;74.90
73777;DHT22;62088;50.240;2.696;2023-10-09T02:44:39;14.70;74.80
73777;DHT22;62088;50.240;2.696;2023-10-09T02:47:13;14.70;74.60
73777;DHT22;62088;50.240;2.696;2023-10-09T02:49:47;14.70;74.40
73777;DHT22;62088;50.240;2.696;2023-10-09T02:52:15;14.60;74.30
73777;DHT22;62088;50.240;2.696;2023-10-09T02:54:46;14.60;74.10
73777;DHT22;62088;50.240;2.696;2023-10-09T02:57:14;14.60;74.10
73777;DHT22;62088;50.240;2.696;2023-10-09T02:59:51;14.50;74.10
73777;DHT22;62088;50.240;2.696;2023-10-09T03:02:19;14.60;74.30
73777;DHT22;62088;50.240;2.696;2023-10-09T03:04:46;14.50;74.60
73777;DHT22;62088;50.240;2.696;2023-10-09T03:07:13;14.50;74.70
73777;DHT22;62088;50.240;2.696;2023-10-09T03:09:41;14.50;74.80
73777;DHT22;62088;50.240;2.696;2023-10-09T03:12:08;14.40;74.80
73777;DHT22;62088;50.240;2.696;2023-10-09T03:14:40;14.40;74.90
73777;DHT22;62088;50.240;2.696;2023-10-09T03:17:08;14.40;75.00
73777;DHT22;62088;50.240;2.696;2023-10-09T03:19:57;14.40;75.00
73777;DHT22;62088;50.240;2.696;2023-10-09T03:22:26;14.40;75.00
73777;DHT22;62088;50.240;2.696;2023-10-09T03:24:53;14.40;75.10
73777;DHT22;62088;50.240;2.696;2023-10-09T03:27:20;14.30;75.30
73777;DHT22;62088;50.240;2.696;2023-10-09T03:29:47;14.30;75.30
73777;DHT22;62088;50.240;2.696;2023-10-09T03:32:20;14.30;75.20
73777;DHT22;62088;50.240;2.696;2023-10-09T03:34:47;14.20;75.00
73777;DHT22;62088;50.240;2.696;2023-10-09T03:37:18;14.20;74.90
73777;DHT22;62088;50.240;2.696;2023-10-09T03:40:13;14.20;74.80
73777;DHT22;62088;50.240;2.696;2023-10-09T03:42:44;14.20;74.80
73777;DHT22;62088;50.240;2.696;2023-10-09T03:45:11;14.20;74.70
73777;DHT22;62088;50.240;2.696;2023-10-09T03:48:02;14.10;74.70
73777;DHT22;62088;50.240;2.696;2023-10-09T03:50:36;14.10;74.80
73777;DHT22;62088;50.240;2.696;2023-10-09T03:53:05;14.10;74.70
73777;DHT22;62088;50.240;2.696;2023-10-09T03:55:36;14.10;74.70
73777;DHT22;62088;50.240;2.696;2023-10-09T03:58:07;14.10;74.70
73777;DHT22;62088;50.240;2.696;2023-10-09T04:00:38;14.00;74.70
73777;DHT22;62088;50.240;2.696;2023-10-09T04:03:13;14.00;74.70
73777;DHT22;62088;50.240;2.696;2023-10-09T04:05:43;14.00;74.60
73777;DHT22;62088;50.240;2.696;2023-10-09T04:08:11;14.00;74.70
73777;DHT22;62088;50.240;2.696;2023-10-09T04:10:48;13.90;74.70
73777;DHT22;62088;50.240;2.696;2023-10-09T04:13:21;13.90;74.60
73777;DHT22;62088;50.240;2.696;2023-10-09T04:16:03;13.90;74.70
73777;DHT22;62088;50.240;2.696;2023-10-09T04:18:38;13.90;74.90
73777;DHT22;62088;50.240;2.696;2023-10-09T04:21:07;13.90;75.10
73777;DHT22;62088;50.240;2.696;2023-10-09T04:23:47;13.90;75.20
73777;DHT22;62088;50.240;2.696;2023-10-09T04:26:26;13.90;75.20
73777;DHT22;62088;50.240;2.696;2023-10-09T04:28:56;13.90;75.20
73777;DHT22;62088;50.240;2.696;2023-10-09T04:31:23;13.90;75.20
73777;DHT22;62088;50.240;2.696;2023-10-09T04:33:59;13.80;75.20
73777;DHT22;62088;50.240;2.696;2023-10-09T04:37:03;13.80;75.20
73777;DHT22;62088;50.240;2.696;2023-10-09T04:39:49;13.80;75.30
73777;DHT22;62088;50.240;2.696;2023-10-09T04:42:39;13.80;75.30
73777;DHT22;62088;50.240;2.696;2023-10-09T04:45:13;13.80;75.50
73777;DHT22;62088;50.240;2.696;2023-10-09T04:47:40;13.80;75.60
73777;DHT22;62088;50.240;2.696;2023-10-09T04:50:36;13.80;75.80
73777;DHT22;62088;50.240;2.696;2023-10-09T04:53:03;13.70;75.90
73777;DHT22;62088;50.240;2.696;2023-10-09T04:55:45;13.70;75.90
73777;DHT22;62088;50.240;2.696;2023-10-09T04:58:22;13.70;75.90
73777;DHT22;62088;50.240;2.696;2023-10-09T05:01:11;13.70;75.90
73777;DHT22;62088;50.240;2.696;2023-10-09T05:03:39;13.60;75.90
73777;DHT22;62088;50.240;2.696;2023-10-09T05:06:06;13.70;76.00
73777;DHT22;62088;50.240;2.696;2023-10-09T05:09:28;13.60;76.00
73777;DHT22;62088;50.240;2.696;2023-10-09T05:12:15;13.60;76.20
73777;DHT22;62088;50.240;2.696;2023-10-09T05:14:42;13.70;76.30
73777;DHT22;62088;50.240;2.696;2023-10-09T05:17:29;13.70;76.40
73777;DHT22;62088;50.240;2.696;2023-10-09T05:20:01;13.60;76.60
73777;DHT22;62088;50.240;2.696;2023-10-09T05:23:06;13.60;76.80
73777;DHT22;62088;50.240;2.696;2023-10-09T05:25:50;13.60;77.10
73777;DHT22;62088;50.240;2.696;2023-10-09T05:28:20;13.60;77.30
73777;DHT22;62088;50.240;2.696;2023-10-09T05:31:03;13.60;77.40
73777;DHT22;62088;50.240;2.696;2023-10-09T05:33:36;13.60;77.50
73777;DHT22;62088;50.240;2.696;2023-10-09T05:36:05;13.60;77.60
73777;DHT22;62088;50.240;2.696;2023-10-09T05:38:44;13.60;77.70
73777;DHT22;62088;50.240;2.696;2023-10-09T05:41:13;13.70;77.70
73777;DHT22;62088;50.240;2.696;2023-10-09T05:44:14;13.60;77.80
73777;DHT22;62088;50.240;2.696;2023-10-09T05:47:00;13.70;77.90
73777;DHT22;62088;50.240;2.696;2023-10-09T05:49:46;13.70;78.00
73777;DHT22;62088;50.240;2.696;2023-10-09T05:52:13;13.70;78.10
73777;DHT22;62088;50.240;2.696;2023-10-09T05:55:15;13.70;78.30
73777;DHT22;62088;50.240;2.696;2023-10-09T05:57:55;13.70;78.40
73777;DHT22;62088;50.240;2.696;2023-10-09T06:00:40;13.70;78.40
73777;DHT22;62088;50.240;2.696;2023-10-09T06:03:26;13.60;78.60
73777;DHT22;62088;50.240;2.696;2023-10-09T06:06:12;13.70;78.70
73777;DHT22;62088;50.240;2.696;2023-10-09T06:09:03;13.70;78.70
73777;DHT22;62088;50.240;2.696;2023-10-09T06:11:50;13.70;78.90
73777;DHT22;62088;50.240;2.696;2023-10-09T06:14:24;13.70;79.00
73777;DHT22;62088;50.240;2.696;2023-10-09T06:16:58;13.70;79.00
73777;DHT22;62088;50.240;2.696;2023-10-09T06:19:40;13.70;79.10
73777;DHT22;62088;50.240;2.696;2023-10-09T06:22:10;13.70;79.20
73777;DHT22;62088;50.240;2.696;2023-10-09T06:24:57;13.70;79.30
73777;DHT22;62088;50.240;2.696;2023-10-09T06:27:26;13.70;79.40
73777;DHT22;62088;50.240;2.696;2023-10-09T06:30:13;13.70;79.50
73777;DHT22;62088;50.240;2.696;2023-10-09T06:32:46;13.70;79.60
73777;DHT22;62088;50.240;2.696;2023-10-09T06:35:36;13.80;79.60
73777;DHT22;62088;50.240;2.696;2023-10-09T06:38:03;13.80;79.70
73777;DHT22;62088;50.240;2.696;2023-10-09T06:40:51;13.80;79.70
73777;DHT22;62088;50.240;2.696;2023-10-09T06:43:21;13.80;79.80
73777;DHT22;62088;50.240;2.696;2023-10-09T06:45:50;13.90;79.90
73777;DHT22;62088;50.240;2.696;2023-10-09T06:48:54;13.90;80.00
73777;DHT22;62088;50.240;2.696;2023-10-09T06:51:24;13.90;80.10
73777;DHT22;62088;50.240;2.696;2023-10-09T06:53:55;13.90;80.10
73777;DHT22;62088;50.240;2.696;2023-10-09T06:56:29;13.90;80.20
73777;DHT22;62088;50.240;2.696;2023-10-09T06:59:05;13.90;80.20
73777;DHT22;62088;50.240;2.696;2023-10-09T07:01:52;13.90;80.20
73777;DHT22;62088;50.240;2.696;2023-10-09T07:04:58;13.90;80.30
73777;DHT22;62088;50.240;2.696;2023-10-09T07:07:40;14.00;80.30
73777;DHT22;62088;50.240;2.696;2023-10-09T07:10:17;14.00;80.40
73777;DHT22;62088;50.240;2.696;2023-10-09T07:12:56;14.00;80.50
73777;DHT22;62088;50.240;2.696;2023-10-09T07:15:24;14.10;80.60
73777;DHT22;62088;50.240;2.696;2023-10-09T07:18:26;14.10;80.60
73777;DHT22;62088;50.240;2.696;2023-10-09T07:21:08;14.10;80.80
73777;DHT22;62088;50.240;2.696;2023-10-09T07:23:39;14.20;80.80
73777;DHT22;62088;50.240;2.696;2023-10-09T07:26:15;14.20;80.90
73777;DHT22;62088;50.240;2.696;2023-10-09T07:29:04;14.30;81.00
73777;DHT22;62088;50.240;2.696;2023-10-09T07:31:50;14.30;81.00
73777;DHT22;62088;50.240;2.696;2023-10-09T07:34:24;14.40;81.10
73777;DHT22;62088;50.240;2.696;2023-10-09T07:36:57;14.40;81.10
73777;DHT22;62088;50.240;2.696;2023-10-09T07:39:50;14.40;81.20
73777;DHT22;62088;50.240;2.696;2023-10-09T07:42:25;14.50;81.30
73777;DHT22;62088;50.240;2.696;2023-10-09T07:45:08;14.60;81.30
73777;DHT22;62088;50.240;2.696;2023-10-09T07:47:59;14.60;81.40
73777;DHT22;62088;50.240;2.696;2023-10-09T07:50:34;14.70;81.50
73777;DHT22;62088;50.240;2.696;2023-10-09T07:53:08;14.70;81.50
73777;DHT22;62088;50.240;2.696;2023-10-09T07:55:54;14.80;81.70
73777;DHT22;62088;50.240;2.696;2023-10-09T07:58:22;14.90;81.70
73777;DHT22;62088;50.240;2.696;2023-10-09T08:00:56;14.90;81.70
73777;DHT22;62088;50.240;2.696;2023-10-09T08:03:43;15.00;81.80
73777;DHT22;62088;50.240;2.696;2023-10-09T08:06:16;15.10;81.90
73777;DHT22;62088;50.240;2.696;2023-10-09T08:09:02;15.20;82.00
73777;DHT22;62088;50.240;2.696;2023-10-09T08:11:30;15.20;82.30
73777;DHT22;62088;50.240;2.696;2023-10-09T08:14:07;15.30;82.50
73777;DHT22;62088;50.240;2.696;2023-10-09T08:16:50;15.40;82.60
73777;DHT22;62088;50.240;2.696;2023-10-09T08:19:38;15.50;82.70
73777;DHT22;62088;50.240;2.696;2023-10-09T08:22:23;15.60;82.70
73777;DHT22;62088;50.240;2.696;2023-10-09T08:24:51;15.70;82.70
73777;DHT22;62088;50.240;2.696;2023-10-09T08:27:25;15.80;82.70
73777;DHT22;62088;50.240;2.696;2023-10-09T08:30:02;15.90;82.70
73777;DHT22;62088;50.240;2.696;2023-10-09T08:32:55;16.10;82.90
73777;DHT22;62088;50.240;2.696;2023-10-09T08:35:46;16.20;83.00
73777;DHT22;62088;50.240;2.696;2023-10-09T08:38:17;16.30;83.10
73777;DHT22;62088;50.240;2.696;2023-10-09T08:40:51;16.40;83.10
73777;DHT22;62088;50.240;2.696;2023-10-09T08:43:25;16.50;83.00
73777;DHT22;62088;50.240;2.696;2023-10-09T08:45:53;16.60;83.00
73777;DHT22;62088;50.240;2.696;2023-10-09T08:48:21;16.60;83.00
73777;DHT22;62088;50.240;2.696;2023-10-09T08:50:55;16.80;82.90
73777;DHT22;62088;50.240;2.696;2023-10-09T08:53:23;16.80;82.80
73777;DHT22;62088;50.240;2.696;2023-10-09T08:56:00;16.90;82.70
73777;DHT22;62088;50.240;2.696;2023-10-09T08:58:30;17.00;82.40
73777;DHT22;62088;50.240;2.696;2023-10-09T09:01:23;17.10;82.30
73777;DHT22;62088;50.240;2.696;2023-10-09T09:03:53;17.20;82.10
73777;DHT22;62088;50.240;2.696;2023-10-09T09:06:23;17.30;81.90
73777;DHT22;62088;50.240;2.696;2023-10-09T09:08:51;17.40;81.70
73777;DHT22;62088;50.240;2.696;2023-10-09T09:11:27;17.40;81.50
73777;DHT22;62088;50.240;2.696;2023-10-09T09:14:02;17.40;81.30
73777;DHT22;62088;50.240;2.696;2023-10-09T09:16:49;17.50;81.00
73777;DHT22;62088;50.240;2.696;2023-10-09T09:19:16;17.60;80.70
73777;DHT22;62088;50.240;2.696;2023-10-09T09:21:49;17.60;80.40
73777;DHT22;62088;50.240;2.696;2023-10-09T09:24:22;17.60;80.20
73777;DHT22;62088;50.240;2.696;2023-10-09T09:26:55;17.70;80.00
73777;DHT22;62088;50.240;2.696;2023-10-09T09:29:39;17.70;79.90
73777;DHT22;62088;50.240;2.696;2023-10-09T09:32:11;17.80;79.80
73777;DHT22;62088;50.240;2.696;2023-10-09T09:34:51;17.90;79.70
73777;DHT22;62088;50.240;2.696;2023-10-09T09:37:23;18.00;79.50
73777;DHT22;62088;50.240;2.696;2023-10-09T09:40:13;18.10;79.10
73777;DHT22;62088;50.240;2.696;2023-10-09T09:43:02;18.20;78.60
73777;DHT22;62088;50.240;2.696;2023-10-09T09:45:37;18.30;78.30
73777;DHT22;62088;50.240;2.696;2023-10-09T09:48:06;18.40;78.00
73777;DHT22;62088;50.240;2.696;2023-10-09T09:50:33;18.60;77.80
73777;DHT22;62088;50.240;2.696;2023-10-09T09:53:04;18.60;77.60
73777;DHT22;62088;50.240;2.696;2023-10-09T09:55:38;18.80;77.20
73777;DHT22;62088;50.240;2.696;2023-10-09T09:58:13;18.90;76.90
73777;DHT22;62088;50.240;2.696;2023-10-09T10:00:46;18.90;76.60
73777;DHT22;62088;50.240;2.696;2023-10-09T10:03:41;19.10;76.40
73777;DHT22;62088;50.240;2.696;2023-10-09T10:06:11;19.20;76.30
73777;DHT22;62088;50.240;2.696;2023-10-09T10:08:41;19.30;76.00
73777;DHT22;62088;50.240;2.696;2023-10-09T10:11:44;19.30;75.70
73777;DHT22;62088;50.240;2.696;2023-10-09T10:14:13;19.40;75.00
73777;DHT22;62088;50.240;2.696;2023-10-09T10:17:03;19.40;74.70
73777;DHT22;62088;50.240;2.696;2023-10-09T10:20:04;19.40;74.40
73777;DHT22;62088;50.240;2.696;2023-10-09T10:22:44;19.50;74.10
73777;DHT22;62088;50.240;2.696;2023-10-09T10:31:05;19.60;73.40
73777;DHT22;62088;50.240;2.696;2023-10-09T10:36:22;19.70;73.10
73777;DHT22;62088;50.240;2.696;2023-10-09T10:39:07;19.70;73.00
73777;DHT22;62088;50.240;2.696;2023-10-09T10:41:39;19.80;72.90
73777;DHT22;62088;50.240;2.696;2023-10-09T10:44:30;19.80;72.80
73777;DHT22;62088;50.240;2.696;2023-10-09T10:47:12;19.90;72.80
73777;DHT22;62088;50.240;2.696;2023-10-09T10:49:55;19.90;72.80
73777;DHT22;62088;50.240;2.696;2023-10-09T10:52:27;19.90;72.60
73777;DHT22;62088;50.240;2.696;2023-10-09T10:55:13;19.90;72.40
73777;DHT22;62088;50.240;2.696;2023-10-09T10:57:59;19.90;72.40
73777;DHT22;62088;50.240;2.696;2023-10-09T11:00:37;19.90;72.30
73777;DHT22;62088;50.240;2.696;2023-10-09T11:03:24;19.90;72.20
73777;DHT22;62088;50.240;2.696;2023-10-09T11:06:03;20.00;72.10
73777;DHT22;62088;50.240;2.696;2023-10-09T11:08:46;20.00;71.90
73777;DHT22;62088;50.240;2.696;2023-10-09T11:11:22;20.00;71.90
73777;DHT22;62088;50.240;2.696;2023-10-09T11:13:50;20.00;71.80
73777;DHT22;62088;50.240;2.696;2023-10-09T11:16:25;20.00;71.70
73777;DHT22;62088;50.240;2.696;2023-10-09T11:18:59;20.10;71.60
73777;DHT22;62088;50.240;2.696;2023-10-09T11:21:40;20.10;71.50
73777;DHT22;62088;50.240;2.696;2023-10-09T11:24:08;20.00;71.30
73777;DHT22;62088;50.240;2.696;2023-10-09T11:26:51;20.10;71.30
73777;DHT22;62088;50.240;2.696;2023-10-09T11:29:23;20.00;71.20
73777;DHT22;62088;50.240;2.696;2023-10-09T11:31:59;20.00;71.10
73777;DHT22;62088;50.240;2.696;2023-10-09T11:34:28;20.10;71.20
73777;DHT22;62088;50.240;2.696;2023-10-09T11:37:00;20.10;71.20
73777;DHT22;62088;50.240;2.696;2023-10-09T11:39:30;20.10;71.20
73777;DHT22;62088;50.240;2.696;2023-10-09T11:42:20;20.20;71.20
73777;DHT22;62088;50.240;2.696;2023-10-09T11:45:23;20.30;71.10
73777;DHT22;62088;50.240;2.696;2023-10-09T11:48:16;20.40;70.70
73777;DHT22;62088;50.240;2.696;2023-10-09T11:50:52;20.50;70.10
73777;DHT22;62088;50.240;2.696;2023-10-09T11:53:41;20.70;69.50
73777;DHT22;62088;50.240;2.696;2023-10-09T11:56:27;20.80;69.20
73777;DHT22;62088;50.240;2.696;2023-10-09T11:58:55;21.00;68.70
73777;DHT22;62088;50.240;2.696;2023-10-09T12:01:26;21.10;67.40
73777;DHT22;62088;50.240;2.696;2023-10-09T12:04:02;21.30;66.90
73777;DHT22;62088;50.240;2.696;2023-10-09T12:06:29;21.40;66.30
73777;DHT22;62088;50.240;2.696;2023-10-09T12:08:59;21.60;66.00
73777;DHT22;62088;50.240;2.696;2023-10-09T12:11:26;21.80;65.60
73777;DHT22;62088;50.240;2.696;2023-10-09T12:13:57;21.90;64.80
73777;DHT22;62088;50.240;2.696;2023-10-09T12:16:25;22.10;64.00
73777;DHT22;62088;50.240;2.696;2023-10-09T12:18:56;22.30;63.70
73777;DHT22;62088;50.240;2.696;2023-10-09T12:21:23;22.40;63.20
73777;DHT22;62088;50.240;2.696;2023-10-09T12:23:50;22.50;62.20
73777;DHT22;62088;50.240;2.696;2023-10-09T12:26:17;22.60;61.00
73777;DHT22;62088;50.240;2.696;2023-10-09T12:28:46;22.80;59.90
73777;DHT22;62088;50.240;2.696;2023-10-09T12:31:14;22.90;59.30
73777;DHT22;62088;50.240;2.696;2023-10-09T12:33:42;22.90;59.30
73777;DHT22;62088;50.240;2.696;2023-10-09T12:36:12;23.00;59.40
73777;DHT22;62088;50.240;2.696;2023-10-09T12:38:49;23.20;58.70
73777;DHT22;62088;50.240;2.696;2023-10-09T12:41:21;23.30;58.30
73777;DHT22;62088;50.240;2.696;2023-10-09T12:43:56;23.30;58.20
73777;DHT22;62088;50.240;2.696;2023-10-09T12:46:26;23.40;57.70
73777;DHT22;62088;50.240;2.696;2023-10-09T12:48:54;23.40;57.40
73777;DHT22;62088;50.240;2.696;2023-10-09T12:51:22;23.40;57.00
73777;DHT22;62088;50.240;2.696;2023-10-09T12:53:52;23.50;56.80
73777;DHT22;62088;50.240;2.696;2023-10-09T12:56:28;23.60;56.90
73777;DHT22;62088;50.240;2.696;2023-10-09T12:59:05;23.60;56.70
73777;DHT22;62088;50.240;2.696;2023-10-09T13:01:42;23.70;56.30
73777;DHT22;62088;50.240;2.696;2023-10-09T13:04:14;23.70;55.60
73777;DHT22;62088;50.240;2.696;2023-10-09T13:06:45;23.70;55.40
73777;DHT22;62088;50.240;2.696;2023-10-09T13:09:14;23.70;55.60
73777;DHT22;62088;50.240;2.696;2023-10-09T13:11:43;23.80;55.50
73777;DHT22;62088;50.240;2.696;2023-10-09T13:14:10;23.80;55.30
73777;DHT22;62088;50.240;2.696;2023-10-09T13:16:49;23.80;55.10
73777;DHT22;62088;50.240;2.696;2023-10-09T13:19:20;23.80;55.00
73777;DHT22;62088;50.240;2.696;2023-10-09T13:21:51;23.90;55.00
73777;DHT22;62088;50.240;2.696;2023-10-09T13:24:18;23.90;54.60
73777;DHT22;62088;50.240;2.696;2023-10-09T13:26:51;24.00;54.10
73777;DHT22;62088;50.240;2.696;2023-10-09T13:29:20;24.00;53.70
73777;DHT22;62088;50.240;2.696;2023-10-09T13:31:50;24.00;53.30
73777;DHT22;62088;50.240;2.696;2023-10-09T13:34:24;24.00;52.80
73777;DHT22;62088;50.240;2.696;2023-10-09T13:37:13;24.00;52.80
73777;DHT22;62088;50.240;2.696;2023-10-09T13:39:41;24.00;52.70
73777;DHT22;62088;50.240;2.696;2023-10-09T13:42:19;24.00;52.70
73777;DHT22;62088;50.240;2.696;2023-10-09T13:44:52;24.00;52.30
73777;DHT22;62088;50.240;2.696;2023-10-09T13:47:41;24.10;52.40
73777;DHT22;62088;50.240;2.696;2023-10-09T13:50:12;24.10;52.70
73777;DHT22;62088;50.240;2.696;2023-10-09T13:52:40;24.10;52.50
73777;DHT22;62088;50.240;2.696;2023-10-09T13:55:07;24.20;52.40
73777;DHT22;62088;50.240;2.696;2023-10-09T13:57:43;24.10;52.40
73777;DHT22;62088;50.240;2.696;2023-10-09T14:00:13;24.10;52.10
73777;DHT22;62088;50.240;2.696;2023-10-09T14:02:45;24.10;52.00
73777;DHT22;62088;50.240;2.696;2023-10-09T14:05:13;24.10;51.70
73777;DHT22;62088;50.240;2.696;2023-10-09T14:07:41;24.10;51.60
73777;DHT22;62088;50.240;2.696;2023-10-09T14:10:08;24.10;51.80
73777;DHT22;62088;50.240;2.696;2023-10-09T14:12:44;24.10;51.80
73777;DHT22;62088;50.240;2.696;2023-10-09T14:15:11;24.10;51.80
73777;DHT22;62088;50.240;2.696;2023-10-09T14:17:44;24.10;52.00
73777;DHT22;62088;50.240;2.696;2023-10-09T14:20:14;24.00;52.10
73777;DHT22;62088;50.240;2.696;2023-10-09T14:22:58;24.00;52.20
73777;DHT22;62088;50.240;2.696;2023-10-09T14:25:33;24.10;52.40
73777;DHT22;62088;50.240;2.696;2023-10-09T14:28:06;24.00;52.40
73777;DHT22;62088;50.240;2.696;2023-10-09T14:30:38;24.00;51.80
73777;DHT22;62088;50.240;2.696;2023-10-09T14:33:11;24.10;51.20
73777;DHT22;62088;50.240;2.696;2023-10-09T14:35:49;24.10;50.80
73777;DHT22;62088;50.240;2.696;2023-10-09T14:38:19;24.10;50.40
73777;DHT22;62088;50.240;2.696;2023-10-09T14:40:53;24.10;50.50
73777;DHT22;62088;50.240;2.696;2023-10-09T14:43:24;24.10;50.40
73777;DHT22;62088;50.240;2.696;2023-10-09T14:45:55;24.00;50.50
73777;DHT22;62088;50.240;2.696;2023-10-09T14:48:22;24.00;50.50
73777;DHT22;62088;50.240;2.696;2023-10-09T14:50:53;24.10;50.10
73777;DHT22;62088;50.240;2.696;2023-10-09T14:53:21;24.00;50.00
73777;DHT22;62088;50.240;2.696;2023-10-09T14:55:56;24.00;50.00
73777;DHT22;62088;50.240;2.696;2023-10-09T14:58:23;24.00;49.50
73777;DHT22;62088;50.240;2.696;2023-10-09T15:01:14;24.00;48.60
73777;DHT22;62088;50.240;2.696;2023-10-09T15:03:45;24.00;48.50
73777;DHT22;62088;50.240;2.696;2023-10-09T15:06:14;24.10;48.40
73777;DHT22;62088;50.240;2.696;2023-10-09T15:08:43;24.10;48.30
73777;DHT22;62088;50.240;2.696;2023-10-09T15:11:10;24.10;48.20
73777;DHT22;62088;50.240;2.696;2023-10-09T15:13:37;24.10;47.90
73777;DHT22;62088;50.240;2.696;2023-10-09T15:16:06;24.10;47.60
73777;DHT22;62088;50.240;2.696;2023-10-09T15:18:33;24.10;47.50
73777;DHT22;62088;50.240;2.696;2023-10-09T15:21:04;24.00;47.50
73777;DHT22;62088;50.240;2.696;2023-10-09T15:23:32;24.00;47.60
73777;DHT22;62088;50.240;2.696;2023-10-09T15:26:00;23.90;47.40
73777;DHT22;62088;50.240;2.696;2023-10-09T15:28:28;23.90;47.50
73777;DHT22;62088;50.240;2.696;2023-10-09T15:30:59;23.80;47.30
73777;DHT22;62088;50.240;2.696;2023-10-09T15:33:26;23.70;47.30
73777;DHT22;62088;50.240;2.696;2023-10-09T15:36:10;23.60;47.40
73777;DHT22;62088;50.240;2.696;2023-10-09T15:38:38;23.50;47.60
73777;DHT22;62088;50.240;2.696;2023-10-09T15:41:05;23.40;47.90
73777;DHT22;62088;50.240;2.696;2023-10-09T15:43:35;23.40;48.20
73777;DHT22;62088;50.240;2.696;2023-10-09T15:46:03;23.30;48.50
73777;DHT22;62088;50.240;2.696;2023-10-09T15:48:30;23.30;48.60
73777;DHT22;62088;50.240;2.696;2023-10-09T15:50:59;23.20;48.70
73777;DHT22;62088;50.240;2.696;2023-10-09T15:53:27;23.10;49.00
73777;DHT22;62088;50.240;2.696;2023-10-09T15:55:54;23.10;49.50
73777;DHT22;62088;50.240;2.696;2023-10-09T15:58:24;23.00;49.60
73777;DHT22;62088;50.240;2.696;2023-10-09T16:00:51;22.90;49.90
73777;DHT22;62088;50.240;2.696;2023-10-09T16:03:18;22.90;50.00
73777;DHT22;62088;50.240;2.696;2023-10-09T16:05:45;22.80;50.10
73777;DHT22;62088;50.240;2.696;2023-10-09T16:08:14;22.80;50.20
73777;DHT22;62088;50.240;2.696;2023-10-09T16:10:45;22.80;50.50
73777;DHT22;62088;50.240;2.696;2023-10-09T16:13:13;22.70;50.60
73777;DHT22;62088;50.240;2.696;2023-10-09T16:15:43;22.70;50.80
73777;DHT22;62088;50.240;2.696;2023-10-09T16:18:10;22.60;50.90
73777;DHT22;62088;50.240;2.696;2023-10-09T16:20:38;22.60;51.10
73777;DHT22;62088;50.240;2.696;2023-10-09T16:23:05;22.60;51.30
73777;DHT22;62088;50.240;2.696;2023-10-09T16:25:32;22.50;51.50
73777;DHT22;62088;50.240;2.696;2023-10-09T16:28:03;22.50;51.90
73777;DHT22;62088;50.240;2.696;2023-10-09T16:30:30;22.40;52.20
73777;DHT22;62088;50.240;2.696;2023-10-09T16:32:57;22.40;52.50